sensor_id;sensor_type;location;lat;lon;timestamp;temperature;humidity
37786;DHT22;23625;48.784;9.336;2023-04-06T00:00:39;0.30;99.90
37786;DHT22;23625;48.784;9.336;2023-04-06T00:03:05;0.30;99.90
37786;DHT22;23625;48.784;9.336;2023-04-06T00:05:31;0.40;99.90
37786;DHT22;23625;48.784;9.336;2023-04-06T00:07:58;0.30;99.90
37786;DHT22;23625;48.784;9.336;2023-04-06T00:10:23;0.40;99.90
37786;DHT22;23625;48.784;9.336;2023-04-06T00:12:50;0.50;99.90
37786;DHT22;23625;48.784;9.336;2023-04-06T00:15:15;0.50;99.90
37786;DHT22;23625;48.784;9.336;2023-04-06T00:17:41;0.50;99.90
37786;DHT22;23625;48.784;9.336;2023-04-06T00:20:07;0.60;99.90
37786;DHT22;23625;48.784;9.336;2023-04-06T00:22:33;0.60;99.90
37786;DHT22;23625;48.784;9.336;2023-04-06T00:24:59;0.60;99.90
37786;DHT22;23625;48.784;9.336;2023-04-06T00:27:25;0.60;99.90
37786;DHT22;23625;48.784;9.336;2023-04-06T00:29:50;0.50;99.90
37786;DHT22;23625;48.784;9.336;2023-04-06T00:32:16;0.50;99.90
37786;DHT22;23625;48.784;9.336;2023-04-06T00:34:42;0.40;99.90
37786;DHT22;23625;48.784;9.336;2023-04-06T00:37:07;0.40;99.90
37786;DHT22;23625;48.784;9.336;2023-04-06T00:39:33;0.30;99.90
37786;DHT22;23625;48.784;9.336;2023-04-06T00:41:58;0.30;99.90
37786;DHT22;23625;48.784;9.336;2023-04-06T00:44:25;0.60;99.90
37786;DHT22;23625;48.784;9.336;2023-04-06T00:46:52;0.10;99.90
37786;DHT22;23625;48.784;9.336;2023-04-06T00:49:18;0.10;99.90
37786;DHT22;23625;48.784;9.336;2023-04-06T00:51:43;0.10;99.90
37786;DHT22;23625;48.784;9.336;2023-04-06T00:54:09;0.10;99.90
37786;DHT22;23625;48.784;9.336;2023-04-06T00:56:35;0.10;99.90
37786;DHT22;23625;48.784;9.336;2023-04-06T00:59:01;0.00;99.90
37786;DHT22;23625;48.784;9.336;2023-04-06T01:01:27;0.10;99.90
37786;DHT22;23625;48.784;9.336;2023-04-06T01:03:54;0.10;99.90
37786;DHT22;23625;48.784;9.336;2023-04-06T01:06:20;-0.10;99.90
37786;DHT22;23625;48.784;9.336;2023-04-06T01:08:46;-0.10;99.90
37786;DHT22;23625;48.784;9.336;2023-04-06T01:11:12;-0.20;99.90
37786;DHT22;23625;48.784;9.336;2023-04-06T01:13:38;-0.20;99.90
37786;DHT22;23625;48.784;9.336;2023-04-06T01:16:03;-0.30;99.90
37786;DHT22;23625;48.784;9.336;2023-04-06T01:18:30;-0.20;99.90
37786;DHT22;23625;48.784;9.336;2023-04-06T01:20:55;-0.20;99.90
37786;DHT22;23625;48.784;9.336;2023-04-06T01:23:21;-0.20;99.90
37786;DHT22;23625;48.784;9.336;2023-04-06T01:25:47;-0.20;99.90
37786;DHT22;23625;48.784;9.336;2023-04-06T01:28:12;-0.20;99.90
37786;DHT22;23625;48.784;9.336;2023-04-06T01:30:38;-0.30;99.90
37786;DHT22;23625;48.784;9.336;2023-04-06T01:33:04;-0.30;99.90
37786;DHT22;23625;48.784;9.336;2023-04-06T01:35:30;-0.30;99.90
37786;DHT22;23625;48.784;9.336;2023-04-06T01:37:55;-0.30;99.90
37786;DHT22;23625;48.784;9.336;2023-04-06T01:40:21;-0.30;99.90
37786;DHT22;23625;48.784;9.336;2023-04-06T01:42:47;-0.30;99.90
37786;DHT22;23625;48.784;9.336;2023-04-06T01:45:12;-0.30;99.90
37786;DHT22;23625;48.784;9.336;2023-04-06T01:47:38;-0.30;99.90
37786;DHT22;23625;48.784;9.336;2023-04-06T01:50:04;-0.40;99.90
37786;DHT22;23625;48.784;9.336;2023-04-06T01:52:32;-0.40;99.90
37786;DHT22;23625;48.784;9.336;2023-04-06T01:54:58;-0.30;99.90
37786;DHT22;23625;48.784;9.336;2023-04-06T01:57:24;-0.30;99.90
37786;DHT22;23625;48.784;9.336;2023-04-06T01:59:50;-0.30;99.90
37786;DHT22;23625;48.784;9.336;2023-04-06T02:02:16;-0.30;99.90
37786;DHT22;23625;48.784;9.336;2023-04-06T02:04:42;-0.40;99.90
37786;DHT22;23625;48.784;9.336;2023-04-06T02:07:07;-0.40;99.90
37786;DHT22;23625;48.784;9.336;2023-04-06T02:09:33;-0.40;99.90
37786;DHT22;23625;48.784;9.336;2023-04-06T02:11:59;-0.30;99.90
37786;DHT22;23625;48.784;9.336;2023-04-06T02:14:26;-0.30;99.90
37786;DHT22;23625;48.784;9.336;2023-04-06T02:16:51;-0.40;99.90
37786;DHT22;23625;48.784;9.336;2023-04-06T02:19:17;-0.40;99.90
37786;DHT22;23625;48.784;9.336;2023-04-06T02:21:42;-0.40;99.90
37786;DHT22;23625;48.784;9.336;2023-04-06T02:24:08;-0.40;99.90
37786;DHT22;23625;48.784;9.336;2023-04-06T02:26:33;-0.40;99.90
37786;DHT22;23625;48.784;9.336;2023-04-06T02:28:59;-0.40;99.90
37786;DHT22;23625;48.784;9.336;2023-04-06T02:31:26;-0.40;99.90
37786;DHT22;23625;48.784;9.336;2023-04-06T02:33:52;-0.40;99.90
37786;DHT22;23625;48.784;9.336;2023-04-06T02:36:17;-0.40;99.90
37786;DHT22;23625;48.784;9.336;2023-04-06T02:38:43;-0.40;99.90
37786;DHT22;23625;48.784;9.336;2023-04-06T02:41:09;-0.40;99.90
37786;DHT22;23625;48.784;9.336;2023-04-06T02:43:34;-0.40;99.90
37786;DHT22;23625;48.784;9.336;2023-04-06T02:46:00;-0.50;99.90
37786;DHT22;23625;48.784;9.336;2023-04-06T02:48:26;-0.40;99.90
37786;DHT22;23625;48.784;9.336;2023-04-06T02:50:51;-0.50;99.90
37786;DHT22;23625;48.784;9.336;2023-04-06T02:53:17;-0.50;99.90
37786;DHT22;23625;48.784;9.336;2023-04-06T02:55:42;-0.50;99.90
37786;DHT22;23625;48.784;9.336;2023-04-06T02:58:08;-0.50;99.90
37786;DHT22;23625;48.784;9.336;2023-04-06T03:00:34;-0.50;99.90
37786;DHT22;23625;48.784;9.336;2023-04-06T03:02:59;-0.50;99.90
37786;DHT22;23625;48.784;9.336;2023-04-06T03:05:25;-0.60;99.90
37786;DHT22;23625;48.784;9.336;2023-04-06T03:07:51;-0.60;99.90
37786;DHT22;23625;48.784;9.336;2023-04-06T03:10:17;-0.70;99.90
37786;DHT22;23625;48.784;9.336;2023-04-06T03:12:42;-0.60;99.90
37786;DHT22;23625;48.784;9.336;2023-04-06T03:15:17;-0.60;99.90
37786;DHT22;23625;48.784;9.336;2023-04-06T03:17:42;-0.60;99.90
37786;DHT22;23625;48.784;9.336;2023-04-06T03:20:08;-0.70;99.90
37786;DHT22;23625;48.784;9.336;2023-04-06T03:22:34;-0.60;99.90
37786;DHT22;23625;48.784;9.336;2023-04-06T03:24:59;-0.70;99.90
37786;DHT22;23625;48.784;9.336;2023-04-06T03:27:25;-0.70;99.90
37786;DHT22;23625;48.784;9.336;2023-04-06T03:29:51;-0.80;99.90
37786;DHT22;23625;48.784;9.336;2023-04-06T03:32:16;-0.70;99.90
37786;DHT22;23625;48.784;9.336;2023-04-06T03:34:42;-0.70;99.90
37786;DHT22;23625;48.784;9.336;2023-04-06T03:37:08;-0.80;99.90
37786;DHT22;23625;48.784;9.336;2023-04-06T03:39:33;-0.70;99.90
37786;DHT22;23625;48.784;9.336;2023-04-06T03:41:59;-0.80;99.90
37786;DHT22;23625;48.784;9.336;2023-04-06T03:44:25;-0.90;99.90
37786;DHT22;23625;48.784;9.336;2023-04-06T03:46:50;-0.90;99.90
37786;DHT22;23625;48.784;9.336;2023-04-06T03:49:16;-0.80;99.90
37786;DHT22;23625;48.784;9.336;2023-04-06T03:51:41;-0.90;99.90
37786;DHT22;23625;48.784;9.336;2023-04-06T03:54:07;-0.80;99.90
37786;DHT22;23625;48.784;9.336;2023-04-06T03:56:32;-0.80;99.90
37786;DHT22;23625;48.784;9.336;2023-04-06T03:58:58;-0.90;99.90
37786;DHT22;23625;48.784;9.336;2023-04-06T04:01:24;-0.90;99.90
37786;DHT22;23625;48.784;9.336;2023-04-06T04:03:50;-1.00;99.90
37786;DHT22;23625;48.784;9.336;2023-04-06T04:06:15;-1.00;99.90
37786;DHT22;23625;48.784;9.336;2023-04-06T04:08:41;-1.00;99.90
37786;DHT22;23625;48.784;9.336;2023-04-06T04:11:06;-1.00;99.90
37786;DHT22;23625;48.784;9.336;2023-04-06T04:13:32;-1.10;99.90
37786;DHT22;23625;48.784;9.336;2023-04-06T04:15:58;-1.20;99.90
37786;DHT22;23625;48.784;9.336;2023-04-06T04:18:24;-1.20;99.90
37786;DHT22;23625;48.784;9.336;2023-04-06T04:20:49;-1.30;99.90
37786;DHT22;23625;48.784;9.336;2023-04-06T04:23:15;-1.30;99.90
37786;DHT22;23625;48.784;9.336;2023-04-06T04:25:40;-1.30;99.90
37786;DHT22;23625;48.784;9.336;2023-04-06T04:28:06;-1.20;99.90
37786;DHT22;23625;48.784;9.336;2023-04-06T04:30:32;-1.20;99.90
37786;DHT22;23625;48.784;9.336;2023-04-06T04:32:57;-1.20;99.90
37786;DHT22;23625;48.784;9.336;2023-04-06T04:35:23;-1.20;99.90
37786;DHT22;23625;48.784;9.336;2023-04-06T04:37:49;-1.20;99.90
37786;DHT22;23625;48.784;9.336;2023-04-06T04:40:14;-1.20;99.90
37786;DHT22;23625;48.784;9.336;2023-04-06T04:42:42;-1.10;99.90
37786;DHT22;23625;48.784;9.336;2023-04-06T04:45:07;-1.20;99.90
37786;DHT22;23625;48.784;9.336;2023-04-06T04:47:33;-1.20;99.90
37786;DHT22;23625;48.784;9.336;2023-04-06T04:49:59;-1.20;99.90
37786;DHT22;23625;48.784;9.336;2023-04-06T04:52:24;-1.20;99.90
37786;DHT22;23625;48.784;9.336;2023-04-06T04:54:52;-1.30;99.90
37786;DHT22;23625;48.784;9.336;2023-04-06T04:57:18;-1.30;99.90
37786;DHT22;23625;48.784;9.336;2023-04-06T04:59:43;-1.30;99.90
37786;DHT22;23625;48.784;9.336;2023-04-06T05:02:09;-1.30;99.90
37786;DHT22;23625;48.784;9.336;2023-04-06T05:04:35;-1.40;99.90
37786;DHT22;23625;48.784;9.336;2023-04-06T05:07:07;-1.30;99.90
37786;DHT22;23625;48.784;9.336;2023-04-06T05:09:33;-1.30;99.90
37786;DHT22;23625;48.784;9.336;2023-04-06T05:11:59;-1.40;99.90
37786;DHT22;23625;48.784;9.336;2023-04-06T05:14:26;-1.40;99.90
37786;DHT22;23625;48.784;9.336;2023-04-06T05:16:52;-1.30;99.90
37786;DHT22;23625;48.784;9.336;2023-04-06T05:19:17;-1.40;99.90
37786;DHT22;23625;48.784;9.336;2023-04-06T05:21:43;-1.30;99.90
37786;DHT22;23625;48.784;9.336;2023-04-06T05:24:09;-1.30;99.90
37786;DHT22;23625;48.784;9.336;2023-04-06T05:26:34;-1.30;99.90
37786;DHT22;23625;48.784;9.336;2023-04-06T05:29:00;-1.30;99.90
37786;DHT22;23625;48.784;9.336;2023-04-06T05:31:26;-1.30;99.90
37786;DHT22;23625;48.784;9.336;2023-04-06T05:33:52;-1.20;99.90
37786;DHT22;23625;48.784;9.336;2023-04-06T05:36:17;-1.30;99.90
37786;DHT22;23625;48.784;9.336;2023-04-06T05:38:43;-1.30;99.90
37786;DHT22;23625;48.784;9.336;2023-04-06T05:41:08;-1.20;99.90
37786;DHT22;23625;48.784;9.336;2023-04-06T05:43:34;-1.10;99.90
37786;DHT22;23625;48.784;9.336;2023-04-06T05:46:00;-1.00;99.90
37786;DHT22;23625;48.784;9.336;2023-04-06T05:48:26;-1.00;99.90
37786;DHT22;23625;48.784;9.336;2023-04-06T05:50:51;-0.90;99.90
37786;DHT22;23625;48.784;9.336;2023-04-06T05:53:17;-0.80;99.90
37786;DHT22;23625;48.784;9.336;2023-04-06T05:55:43;-0.70;99.90
37786;DHT22;23625;48.784;9.336;2023-04-06T05:58:09;-0.70;99.90
37786;DHT22;23625;48.784;9.336;2023-04-06T06:00:35;-0.60;99.90
37786;DHT22;23625;48.784;9.336;2023-04-06T06:03:00;-0.50;99.90
37786;DHT22;23625;48.784;9.336;2023-04-06T06:05:29;-0.40;99.90
37786;DHT22;23625;48.784;9.336;2023-04-06T06:07:55;-0.30;99.90
37786;DHT22;23625;48.784;9.336;2023-04-06T06:10:21;-0.20;99.90
37786;DHT22;23625;48.784;9.336;2023-04-06T06:12:46;-0.10;99.90
37786;DHT22;23625;48.784;9.336;2023-04-06T06:15:12;0.10;99.90
37786;DHT22;23625;48.784;9.336;2023-04-06T06:17:38;0.20;99.90
37786;DHT22;23625;48.784;9.336;2023-04-06T06:20:08;0.20;99.90
37786;DHT22;23625;48.784;9.336;2023-04-06T06:22:33;0.30;99.90
37786;DHT22;23625;48.784;9.336;2023-04-06T06:24:59;0.40;99.90
37786;DHT22;23625;48.784;9.336;2023-04-06T06:27:25;0.60;99.90
37786;DHT22;23625;48.784;9.336;2023-04-06T06:29:53;0.90;99.90
37786;DHT22;23625;48.784;9.336;2023-04-06T06:32:19;1.10;99.90
37786;DHT22;23625;48.784;9.336;2023-04-06T06:34:45;1.10;99.90
37786;DHT22;23625;48.784;9.336;2023-04-06T06:37:10;1.30;99.90
37786;DHT22;23625;48.784;9.336;2023-04-06T06:39:36;1.40;99.90
37786;DHT22;23625;48.784;9.336;2023-04-06T06:42:02;1.60;99.90
37786;DHT22;23625;48.784;9.336;2023-04-06T06:44:28;1.80;99.90
37786;DHT22;23625;48.784;9.336;2023-04-06T06:46:53;2.00;99.90
37786;DHT22;23625;48.784;9.336;2023-04-06T06:49:19;2.20;99.90
37786;DHT22;23625;48.784;9.336;2023-04-06T06:51:46;2.30;99.90
37786;DHT22;23625;48.784;9.336;2023-04-06T06:54:12;2.50;99.90
37786;DHT22;23625;48.784;9.336;2023-04-06T06:56:38;2.60;99.90
37786;DHT22;23625;48.784;9.336;2023-04-06T06:59:05;2.90;99.90
37786;DHT22;23625;48.784;9.336;2023-04-06T07:01:32;3.10;99.90
37786;DHT22;23625;48.784;9.336;2023-04-06T07:03:58;3.20;99.90
37786;DHT22;23625;48.784;9.336;2023-04-06T07:06:24;3.40;99.90
37786;DHT22;23625;48.784;9.336;2023-04-06T07:08:50;3.50;99.00
37786;DHT22;23625;48.784;9.336;2023-04-06T07:11:16;3.70;94.10
37786;DHT22;23625;48.784;9.336;2023-04-06T07:13:42;3.80;95.20
37786;DHT22;23625;48.784;9.336;2023-04-06T07:16:08;4.10;93.40
37786;DHT22;23625;48.784;9.336;2023-04-06T07:18:33;4.30;94.00
37786;DHT22;23625;48.784;9.336;2023-04-06T07:20:59;4.50;92.10
37786;DHT22;23625;48.784;9.336;2023-04-06T07:23:25;4.70;87.90
37786;DHT22;23625;48.784;9.336;2023-04-06T07:25:50;4.80;87.70
37786;DHT22;23625;48.784;9.336;2023-04-06T07:28:17;5.00;87.50
37786;DHT22;23625;48.784;9.336;2023-04-06T07:30:43;5.20;75.70
37786;DHT22;23625;48.784;9.336;2023-04-06T07:33:09;5.40;72.70
37786;DHT22;23625;48.784;9.336;2023-04-06T07:35:34;5.60;69.50
37786;DHT22;23625;48.784;9.336;2023-04-06T07:38:02;5.70;67.20
37786;DHT22;23625;48.784;9.336;2023-04-06T07:40:27;6.00;65.80
37786;DHT22;23625;48.784;9.336;2023-04-06T07:42:53;6.00;65.30
37786;DHT22;23625;48.784;9.336;2023-04-06T07:45:19;6.20;65.30
37786;DHT22;23625;48.784;9.336;2023-04-06T07:47:45;6.40;64.80
37786;DHT22;23625;48.784;9.336;2023-04-06T07:50:11;6.50;62.30
37786;DHT22;23625;48.784;9.336;2023-04-06T07:52:38;6.70;63.10
37786;DHT22;23625;48.784;9.336;2023-04-06T07:55:04;7.00;63.70
37786;DHT22;23625;48.784;9.336;2023-04-06T07:57:30;7.20;59.90
37786;DHT22;23625;48.784;9.336;2023-04-06T07:59:56;7.30;58.60
37786;DHT22;23625;48.784;9.336;2023-04-06T08:02:21;7.40;58.50
37786;DHT22;23625;48.784;9.336;2023-04-06T08:04:47;7.50;58.10
37786;DHT22;23625;48.784;9.336;2023-04-06T08:07:13;7.60;57.10
37786;DHT22;23625;48.784;9.336;2023-04-06T08:09:39;7.70;56.60
37786;DHT22;23625;48.784;9.336;2023-04-06T08:12:04;7.80;55.70
37786;DHT22;23625;48.784;9.336;2023-04-06T08:14:30;7.90;55.70
37786;DHT22;23625;48.784;9.336;2023-04-06T08:16:56;8.10;56.20
37786;DHT22;23625;48.784;9.336;2023-04-06T08:19:21;8.30;55.10
37786;DHT22;23625;48.784;9.336;2023-04-06T08:21:47;8.40;54.70
37786;DHT22;23625;48.784;9.336;2023-04-06T08:24:13;8.50;55.00
37786;DHT22;23625;48.784;9.336;2023-04-06T08:26:39;8.70;54.80
37786;DHT22;23625;48.784;9.336;2023-04-06T08:29:05;8.90;54.80
37786;DHT22;23625;48.784;9.336;2023-04-06T08:31:36;9.10;54.40
37786;DHT22;23625;48.784;9.336;2023-04-06T08:34:05;9.30;54.70
37786;DHT22;23625;48.784;9.336;2023-04-06T08:36:31;9.40;54.00
37786;DHT22;23625;48.784;9.336;2023-04-06T08:38:57;9.50;53.70
37786;DHT22;23625;48.784;9.336;2023-04-06T08:41:23;9.90;54.50
37786;DHT22;23625;48.784;9.336;2023-04-06T08:43:50;10.10;53.90
37786;DHT22;23625;48.784;9.336;2023-04-06T08:46:18;10.30;54.70
37786;DHT22;23625;48.784;9.336;2023-04-06T08:48:44;10.40;53.10
37786;DHT22;23625;48.784;9.336;2023-04-06T08:51:11;10.60;52.70
37786;DHT22;23625;48.784;9.336;2023-04-06T08:53:37;10.70;51.80
37786;DHT22;23625;48.784;9.336;2023-04-06T08:56:04;10.90;51.30
37786;DHT22;23625;48.784;9.336;2023-04-06T08:58:34;11.00;50.90
37786;DHT22;23625;48.784;9.336;2023-04-06T09:01:00;11.00;50.80
37786;DHT22;23625;48.784;9.336;2023-04-06T09:03:28;11.20;49.90
37786;DHT22;23625;48.784;9.336;2023-04-06T09:05:54;11.50;49.50
37786;DHT22;23625;48.784;9.336;2023-04-06T09:08:20;11.70;49.80
37786;DHT22;23625;48.784;9.336;2023-04-06T09:10:46;11.70;49.00
37786;DHT22;23625;48.784;9.336;2023-04-06T09:13:13;11.80;49.00
37786;DHT22;23625;48.784;9.336;2023-04-06T09:15:41;12.00;48.30
37786;DHT22;23625;48.784;9.336;2023-04-06T09:18:07;12.20;47.10
37786;DHT22;23625;48.784;9.336;2023-04-06T09:20:33;12.20;46.80
37786;DHT22;23625;48.784;9.336;2023-04-06T09:22:59;12.10;47.00
37786;DHT22;23625;48.784;9.336;2023-04-06T09:25:25;12.00;47.30
37786;DHT22;23625;48.784;9.336;2023-04-06T09:28:02;12.00;46.90
37786;DHT22;23625;48.784;9.336;2023-04-06T09:30:28;12.20;46.80
37786;DHT22;23625;48.784;9.336;2023-04-06T09:32:56;12.40;45.80
37786;DHT22;23625;48.784;9.336;2023-04-06T09:35:22;12.50;45.60
37786;DHT22;23625;48.784;9.336;2023-04-06T09:37:52;12.70;45.80
37786;DHT22;23625;48.784;9.336;2023-04-06T09:40:18;12.90;45.50
37786;DHT22;23625;48.784;9.336;2023-04-06T09:42:46;12.60;43.80
37786;DHT22;23625;48.784;9.336;2023-04-06T09:45:12;12.40;45.00
37786;DHT22;23625;48.784;9.336;2023-04-06T09:47:40;12.50;44.30
37786;DHT22;23625;48.784;9.336;2023-04-06T09:50:07;12.40;44.00
37786;DHT22;23625;48.784;9.336;2023-04-06T09:52:41;12.40;44.00
37786;DHT22;23625;48.784;9.336;2023-04-06T09:55:08;12.80;44.90
37786;DHT22;23625;48.784;9.336;2023-04-06T10:00:07;13.00;44.10
37786;DHT22;23625;48.784;9.336;2023-04-06T10:02:58;13.10;43.20
37786;DHT22;23625;48.784;9.336;2023-04-06T10:07:58;13.00;42.70
37786;DHT22;23625;48.784;9.336;2023-04-06T10:10:26;12.70;42.60
37786;DHT22;23625;48.784;9.336;2023-04-06T10:12:54;12.80;43.00
37786;DHT22;23625;48.784;9.336;2023-04-06T10:15:21;13.00;43.70
37786;DHT22;23625;48.784;9.336;2023-04-06T10:17:47;13.30;43.50
37786;DHT22;23625;48.784;9.336;2023-04-06T10:20:18;13.60;43.70
37786;DHT22;23625;48.784;9.336;2023-04-06T10:25:28;13.80;39.50
37786;DHT22;23625;48.784;9.336;2023-04-06T10:28:06;14.00;39.30
37786;DHT22;23625;48.784;9.336;2023-04-06T10:30:33;14.20;39.30
37786;DHT22;23625;48.784;9.336;2023-04-06T10:32:59;14.20;38.30
37786;DHT22;23625;48.784;9.336;2023-04-06T10:35:36;14.20;36.30
37786;DHT22;23625;48.784;9.336;2023-04-06T10:38:04;14.50;36.00
37786;DHT22;23625;48.784;9.336;2023-04-06T10:40:30;14.20;34.70
37786;DHT22;23625;48.784;9.336;2023-04-06T10:43:10;14.00;35.50
37786;DHT22;23625;48.784;9.336;2023-04-06T10:45:37;13.80;36.10
37786;DHT22;23625;48.784;9.336;2023-04-06T10:48:18;13.70;36.10
37786;DHT22;23625;48.784;9.336;2023-04-06T10:50:46;13.70;37.10
37786;DHT22;23625;48.784;9.336;2023-04-06T10:53:24;14.00;37.20
37786;DHT22;23625;48.784;9.336;2023-04-06T10:55:51;14.20;36.50
37786;DHT22;23625;48.784;9.336;2023-04-06T10:58:17;14.20;35.20
37786;DHT22;23625;48.784;9.336;2023-04-06T11:00:48;14.20;34.70
37786;DHT22;23625;48.784;9.336;2023-04-06T11:03:14;13.80;34.50
37786;DHT22;23625;48.784;9.336;2023-04-06T11:05:47;13.80;35.00
37786;DHT22;23625;48.784;9.336;2023-04-06T11:08:42;14.00;35.90
37786;DHT22;23625;48.784;9.336;2023-04-06T11:11:10;13.80;35.40
37786;DHT22;23625;48.784;9.336;2023-04-06T11:13:45;13.60;35.20
37786;DHT22;23625;48.784;9.336;2023-04-06T11:21:19;14.00;35.60
37786;DHT22;23625;48.784;9.336;2023-04-06T11:23:45;14.10;34.50
37786;DHT22;23625;48.784;9.336;2023-04-06T11:26:14;14.40;34.10
37786;DHT22;23625;48.784;9.336;2023-04-06T11:28:43;14.50;33.40
37786;DHT22;23625;48.784;9.336;2023-04-06T11:31:10;14.60;35.00
37786;DHT22;23625;48.784;9.336;2023-04-06T11:33:37;14.70;35.30
37786;DHT22;23625;48.784;9.336;2023-04-06T11:36:04;15.00;34.80
37786;DHT22;23625;48.784;9.336;2023-04-06T11:38:30;15.20;34.30
37786;DHT22;23625;48.784;9.336;2023-04-06T11:40:56;15.40;34.00
37786;DHT22;23625;48.784;9.336;2023-04-06T11:43:31;15.70;33.90
37786;DHT22;23625;48.784;9.336;2023-04-06T11:46:01;15.90;34.10
37786;DHT22;23625;48.784;9.336;2023-04-06T11:48:29;16.00;33.40
37786;DHT22;23625;48.784;9.336;2023-04-06T11:50:59;15.80;31.70
37786;DHT22;23625;48.784;9.336;2023-04-06T11:53:27;15.60;30.40
37786;DHT22;23625;48.784;9.336;2023-04-06T11:55:53;15.40;30.40
37786;DHT22;23625;48.784;9.336;2023-04-06T11:58:18;15.10;31.80
37786;DHT22;23625;48.784;9.336;2023-04-06T12:00:44;14.90;32.20
37786;DHT22;23625;48.784;9.336;2023-04-06T12:03:13;14.90;33.10
37786;DHT22;23625;48.784;9.336;2023-04-06T12:05:39;15.10;33.10
37786;DHT22;23625;48.784;9.336;2023-04-06T12:08:05;15.00;32.80
37786;DHT22;23625;48.784;9.336;2023-04-06T12:10:30;15.00;33.00
37786;DHT22;23625;48.784;9.336;2023-04-06T12:12:56;15.10;33.30
37786;DHT22;23625;48.784;9.336;2023-04-06T12:15:22;15.40;34.00
37786;DHT22;23625;48.784;9.336;2023-04-06T12:17:48;15.60;33.80
37786;DHT22;23625;48.784;9.336;2023-04-06T12:20:15;15.80;33.40
37786;DHT22;23625;48.784;9.336;2023-04-06T12:22:40;15.90;32.40
37786;DHT22;23625;48.784;9.336;2023-04-06T12:25:06;15.80;32.60
37786;DHT22;23625;48.784;9.336;2023-04-06T12:27:32;15.70;32.30
37786;DHT22;23625;48.784;9.336;2023-04-06T12:29:58;15.60;33.20
37786;DHT22;23625;48.784;9.336;2023-04-06T12:32:24;15.30;32.70
37786;DHT22;23625;48.784;9.336;2023-04-06T12:34:52;15.20;32.30
37786;DHT22;23625;48.784;9.336;2023-04-06T12:37:17;15.30;33.30
37786;DHT22;23625;48.784;9.336;2023-04-06T12:39:43;15.40;32.70
37786;DHT22;23625;48.784;9.336;2023-04-06T12:42:10;15.40;32.40
37786;DHT22;23625;48.784;9.336;2023-04-06T12:44:36;15.50;32.70
37786;DHT22;23625;48.784;9.336;2023-04-06T12:47:02;15.80;32.50
37786;DHT22;23625;48.784;9.336;2023-04-06T12:49:27;16.20;32.40
37786;DHT22;23625;48.784;9.336;2023-04-06T12:51:53;16.60;32.90
37786;DHT22;23625;48.784;9.336;2023-04-06T12:54:19;16.80;32.40
37786;DHT22;23625;48.784;9.336;2023-04-06T12:56:45;16.80;31.60
37786;DHT22;23625;48.784;9.336;2023-04-06T12:59:11;17.00;31.60
37786;DHT22;23625;48.784;9.336;2023-04-06T13:01:37;17.10;31.70
37786;DHT22;23625;48.784;9.336;2023-04-06T13:04:03;16.80;31.30
37786;DHT22;23625;48.784;9.336;2023-04-06T13:06:28;16.40;30.70
37786;DHT22;23625;48.784;9.336;2023-04-06T13:08:55;16.10;31.10
37786;DHT22;23625;48.784;9.336;2023-04-06T13:11:21;16.00;31.80
37786;DHT22;23625;48.784;9.336;2023-04-06T13:13:49;16.20;32.00
37786;DHT22;23625;48.784;9.336;2023-04-06T13:16:15;16.30;32.50
37786;DHT22;23625;48.784;9.336;2023-04-06T13:18:40;15.80;31.50
37786;DHT22;23625;48.784;9.336;2023-04-06T13:21:07;15.90;32.00
37786;DHT22;23625;48.784;9.336;2023-04-06T13:23:33;16.20;32.00
37786;DHT22;23625;48.784;9.336;2023-04-06T13:26:01;16.50;32.20
37786;DHT22;23625;48.784;9.336;2023-04-06T13:28:28;16.40;31.80
37786;DHT22;23625;48.784;9.336;2023-04-06T13:30:54;16.40;32.40
37786;DHT22;23625;48.784;9.336;2023-04-06T13:33:20;16.50;32.20
37786;DHT22;23625;48.784;9.336;2023-04-06T13:35:46;16.60;31.80
37786;DHT22;23625;48.784;9.336;2023-04-06T13:38:13;16.80;32.00
37786;DHT22;23625;48.784;9.336;2023-04-06T13:40:39;16.90;31.50
37786;DHT22;23625;48.784;9.336;2023-04-06T13:43:05;16.90;32.20
37786;DHT22;23625;48.784;9.336;2023-04-06T13:45:31;16.80;32.00
37786;DHT22;23625;48.784;9.336;2023-04-06T13:47:57;16.70;32.00
37786;DHT22;23625;48.784;9.336;2023-04-06T13:50:22;16.60;32.20
37786;DHT22;23625;48.784;9.336;2023-04-06T13:52:48;16.60;32.40
37786;DHT22;23625;48.784;9.336;2023-04-06T13:55:14;16.40;32.40
37786;DHT22;23625;48.784;9.336;2023-04-06T13:57:41;16.60;32.70
37786;DHT22;23625;48.784;9.336;2023-04-06T14:00:07;16.50;32.40
37786;DHT22;23625;48.784;9.336;2023-04-06T14:02:34;16.40;32.60
37786;DHT22;23625;48.784;9.336;2023-04-06T14:04:59;16.50;32.50
37786;DHT22;23625;48.784;9.336;2023-04-06T14:07:25;16.30;32.20
37786;DHT22;23625;48.784;9.336;2023-04-06T14:09:51;16.20;32.80
37786;DHT22;23625;48.784;9.336;2023-04-06T14:12:16;16.10;33.10
37786;DHT22;23625;48.784;9.336;2023-04-06T14:14:42;15.90;33.10
37786;DHT22;23625;48.784;9.336;2023-04-06T14:17:08;15.70;33.00
37786;DHT22;23625;48.784;9.336;2023-04-06T14:19:33;15.60;33.50
37786;DHT22;23625;48.784;9.336;2023-04-06T14:21:59;15.60;33.00
37786;DHT22;23625;48.784;9.336;2023-04-06T14:24:25;15.50;33.70
37786;DHT22;23625;48.784;9.336;2023-04-06T14:26:51;15.40;33.50
37786;DHT22;23625;48.784;9.336;2023-04-06T14:29:17;15.40;33.50
37786;DHT22;23625;48.784;9.336;2023-04-06T14:31:45;15.40;33.30
37786;DHT22;23625;48.784;9.336;2023-04-06T14:34:11;15.30;33.20
37786;DHT22;23625;48.784;9.336;2023-04-06T14:36:36;15.20;34.00
37786;DHT22;23625;48.784;9.336;2023-04-06T14:39:07;15.10;33.50
37786;DHT22;23625;48.784;9.336;2023-04-06T14:41:33;15.00;34.10
37786;DHT22;23625;48.784;9.336;2023-04-06T14:43:59;14.90;34.10
37786;DHT22;23625;48.784;9.336;2023-04-06T14:46:26;15.00;34.10
37786;DHT22;23625;48.784;9.336;2023-04-06T14:48:55;15.10;34.50
37786;DHT22;23625;48.784;9.336;2023-04-06T14:51:25;15.30;34.10
37786;DHT22;23625;48.784;9.336;2023-04-06T14:53:52;15.10;33.00
37786;DHT22;23625;48.784;9.336;2023-04-06T14:56:22;15.00;33.00
37786;DHT22;23625;48.784;9.336;2023-04-06T14:58:49;14.80;33.40
37786;DHT22;23625;48.784;9.336;2023-04-06T15:01:16;14.80;33.60
37786;DHT22;23625;48.784;9.336;2023-04-06T15:03:42;14.80;33.70
37786;DHT22;23625;48.784;9.336;2023-04-06T15:06:12;14.80;34.40
37786;DHT22;23625;48.784;9.336;2023-04-06T15:08:42;14.90;34.70
37786;DHT22;23625;48.784;9.336;2023-04-06T15:11:08;14.90;34.60
37786;DHT22;23625;48.784;9.336;2023-04-06T15:13:34;14.70;34.80
37786;DHT22;23625;48.784;9.336;2023-04-06T15:15:59;14.80;34.80
37786;DHT22;23625;48.784;9.336;2023-04-06T15:18:25;14.70;34.40
37786;DHT22;23625;48.784;9.336;2023-04-06T15:20:51;14.70;34.60
37786;DHT22;23625;48.784;9.336;2023-04-06T15:23:17;14.80;34.30
37786;DHT22;23625;48.784;9.336;2023-04-06T15:25:43;14.60;34.80
37786;DHT22;23625;48.784;9.336;2023-04-06T15:28:09;14.60;35.20
37786;DHT22;23625;48.784;9.336;2023-04-06T15:30:35;14.60;35.30
37786;DHT22;23625;48.784;9.336;2023-04-06T15:33:01;14.70;35.30
37786;DHT22;23625;48.784;9.336;2023-04-06T15:35:31;14.90;35.00
37786;DHT22;23625;48.784;9.336;2023-04-06T15:37:57;14.80;34.50
37786;DHT22;23625;48.784;9.336;2023-04-06T15:40:25;14.80;34.40
37786;DHT22;23625;48.784;9.336;2023-04-06T15:42:51;14.60;35.00